sensor_id;sensor_type;location;lat;lon;timestamp;P1;durP1;ratioP1;P2;durP2;ratioP2
24787;SDS011;12883;52.662;5.196;2023-03-05T00:01:16;4.57;;;4.57;;
24787;SDS011;12883;52.662;5.196;2023-03-05T00:03:43;3.00;;;3.00;;
24787;SDS011;12883;52.662;5.196;2023-03-05T00:06:09;2.60;;;2.60;;
24787;SDS011;12883;52.662;5.196;2023-03-05T00:08:35;2.40;;;2.40;;
24787;SDS011;12883;52.662;5.196;2023-03-05T00:11:01;3.67;;;3.67;;
24787;SDS011;12883;52.662;5.196;2023-03-05T00:13:28;3.17;;;3.17;;
24787;SDS011;12883;52.662;5.196;2023-03-05T00:15:54;3.20;;;3.20;;
24787;SDS011;12883;52.662;5.196;2023-03-05T00:18:20;2.97;;;2.97;;
24787;SDS011;12883;52.662;5.196;2023-03-05T00:20:46;3.13;;;3.13;;
24787;SDS011;12883;52.662;5.196;2023-03-05T00:23:12;2.20;;;2.20;;
24787;SDS011;12883;52.662;5.196;2023-03-05T00:25:38;3.37;;;3.37;;
24787;SDS011;12883;52.662;5.196;2023-03-05T00:28:04;2.17;;;2.17;;
24787;SDS011;12883;52.662;5.196;2023-03-05T00:30:30;2.40;;;2.40;;
24787;SDS011;12883;52.662;5.196;2023-03-05T00:32:56;3.30;;;3.30;;
24787;SDS011;12883;52.662;5.196;2023-03-05T00:35:22;3.03;;;3.03;;
24787;SDS011;12883;52.662;5.196;2023-03-05T00:37:47;2.57;;;2.57;;
24787;SDS011;12883;52.662;5.196;2023-03-05T00:40:13;2.40;;;2.40;;
24787;SDS011;12883;52.662;5.196;2023-03-05T00:42:38;2.53;;;2.53;;
24787;SDS011;12883;52.662;5.196;2023-03-05T00:45:04;2.20;;;2.20;;
24787;SDS011;12883;52.662;5.196;2023-03-05T00:47:31;3.07;;;3.07;;
24787;SDS011;12883;52.662;5.196;2023-03-05T00:49:56;2.53;;;2.53;;
24787;SDS011;12883;52.662;5.196;2023-03-05T00:52:22;2.40;;;2.40;;
24787;SDS011;12883;52.662;5.196;2023-03-05T00:54:47;2.50;;;2.50;;
24787;SDS011;12883;52.662;5.196;2023-03-05T00:57:12;2.13;;;2.13;;
24787;SDS011;12883;52.662;5.196;2023-03-05T00:59:38;2.00;;;2.00;;
24787;SDS011;12883;52.662;5.196;2023-03-05T01:02:03;2.10;;;2.10;;
24787;SDS011;12883;52.662;5.196;2023-03-05T01:04:29;2.30;;;2.30;;
24787;SDS011;12883;52.662;5.196;2023-03-05T01:06:54;1.60;;;1.60;;
24787;SDS011;12883;52.662;5.196;2023-03-05T01:09:20;1.97;;;1.97;;
24787;SDS011;12883;52.662;5.196;2023-03-05T01:11:45;1.47;;;1.47;;
24787;SDS011;12883;52.662;5.196;2023-03-05T01:14:11;1.33;;;1.33;;
24787;SDS011;12883;52.662;5.196;2023-03-05T01:16:36;1.73;;;1.73;;
24787;SDS011;12883;52.662;5.196;2023-03-05T01:19:02;1.60;;;1.60;;
24787;SDS011;12883;52.662;5.196;2023-03-05T01:21:27;2.37;;;2.37;;
24787;SDS011;12883;52.662;5.196;2023-03-05T01:23:52;1.83;;;1.83;;
24787;SDS011;12883;52.662;5.196;2023-03-05T01:26:18;1.77;;;1.77;;
24787;SDS011;12883;52.662;5.196;2023-03-05T01:28:43;1.87;;;1.87;;
24787;SDS011;12883;52.662;5.196;2023-03-05T01:31:09;1.10;;;1.10;;
24787;SDS011;12883;52.662;5.196;2023-03-05T01:33:35;1.60;;;1.60;;
24787;SDS011;12883;52.662;5.196;2023-03-05T01:36:01;1.90;;;1.90;;
24787;SDS011;12883;52.662;5.196;2023-03-05T01:38:26;1.87;;;1.87;;
24787;SDS011;12883;52.662;5.196;2023-03-05T01:40:51;1.70;;;1.70;;
24787;SDS011;12883;52.662;5.196;2023-03-05T01:43:22;1.30;;;1.30;;
24787;SDS011;12883;52.662;5.196;2023-03-05T01:51:57;1.20;;;1.20;;
24787;SDS011;12883;52.662;5.196;2023-03-05T01:54:33;1.53;;;1.53;;
24787;SDS011;12883;52.662;5.196;2023-03-05T01:57:04;1.30;;;1.30;;
24787;SDS011;12883;52.662;5.196;2023-03-05T01:59:33;1.93;;;1.93;;
24787;SDS011;12883;52.662;5.196;2023-03-05T02:02:01;1.03;;;1.03;;
24787;SDS011;12883;52.662;5.196;2023-03-05T02:04:30;1.33;;;1.33;;
24787;SDS011;12883;52.662;5.196;2023-03-05T02:07:00;2.00;;;2.00;;
24787;SDS011;12883;52.662;5.196;2023-03-05T02:09:26;1.80;;;1.80;;
24787;SDS011;12883;52.662;5.196;2023-03-05T02:11:52;1.00;;;1.00;;
24787;SDS011;12883;52.662;5.196;2023-03-05T02:14:18;1.10;;;1.10;;
24787;SDS011;12883;52.662;5.196;2023-03-05T02:16:45;1.23;;;1.23;;
24787;SDS011;12883;52.662;5.196;2023-03-05T02:19:11;1.57;;;1.57;;
24787;SDS011;12883;52.662;5.196;2023-03-05T02:21:41;0.90;;;0.90;;
24787;SDS011;12883;52.662;5.196;2023-03-05T02:24:14;1.80;;;1.80;;
24787;SDS011;12883;52.662;5.196;2023-03-05T02:26:42;1.27;;;1.27;;
24787;SDS011;12883;52.662;5.196;2023-03-05T02:29:09;1.10;;;1.10;;
24787;SDS011;12883;52.662;5.196;2023-03-05T02:31:38;1.10;;;1.10;;
24787;SDS011;12883;52.662;5.196;2023-03-05T02:34:04;0.93;;;0.93;;
24787;SDS011;12883;52.662;5.196;2023-03-05T02:36:30;1.57;;;1.57;;
24787;SDS011;12883;52.662;5.196;2023-03-05T02:38:55;1.67;;;1.67;;
24787;SDS011;12883;52.662;5.196;2023-03-05T02:41:21;1.33;;;1.33;;
24787;SDS011;12883;52.662;5.196;2023-03-05T02:43:48;1.10;;;1.10;;
24787;SDS011;12883;52.662;5.196;2023-03-05T02:46:13;1.40;;;1.40;;
24787;SDS011;12883;52.662;5.196;2023-03-05T02:48:39;1.37;;;1.37;;
24787;SDS011;12883;52.662;5.196;2023-03-05T02:51:04;1.00;;;1.00;;
24787;SDS011;12883;52.662;5.196;2023-03-05T02:53:31;0.93;;;0.93;;
24787;SDS011;12883;52.662;5.196;2023-03-05T02:55:56;1.10;;;1.10;;
24787;SDS011;12883;52.662;5.196;2023-03-05T02:58:22;1.33;;;1.33;;
24787;SDS011;12883;52.662;5.196;2023-03-05T03:00:47;0.70;;;0.70;;
24787;SDS011;12883;52.662;5.196;2023-03-05T03:03:12;0.80;;;0.80;;
24787;SDS011;12883;52.662;5.196;2023-03-05T03:05:38;1.33;;;1.33;;
24787;SDS011;12883;52.662;5.196;2023-03-05T03:08:03;0.90;;;0.90;;
24787;SDS011;12883;52.662;5.196;2023-03-05T03:10:29;1.10;;;1.10;;
24787;SDS011;12883;52.662;5.196;2023-03-05T03:12:54;0.60;;;0.60;;
24787;SDS011;12883;52.662;5.196;2023-03-05T03:15:20;0.90;;;0.90;;
24787;SDS011;12883;52.662;5.196;2023-03-05T03:17:45;0.80;;;0.80;;
24787;SDS011;12883;52.662;5.196;2023-03-05T03:20:12;1.43;;;1.43;;
24787;SDS011;12883;52.662;5.196;2023-03-05T03:22:39;0.73;;;0.73;;
24787;SDS011;12883;52.662;5.196;2023-03-05T03:25:05;1.13;;;1.13;;
24787;SDS011;12883;52.662;5.196;2023-03-05T03:27:31;0.80;;;0.80;;
24787;SDS011;12883;52.662;5.196;2023-03-05T03:29:57;1.03;;;1.03;;
24787;SDS011;12883;52.662;5.196;2023-03-05T03:32:26;1.17;;;1.17;;
24787;SDS011;12883;52.662;5.196;2023-03-05T03:34:52;0.90;;;0.90;;
24787;SDS011;12883;52.662;5.196;2023-03-05T03:37:18;0.90;;;0.90;;
24787;SDS011;12883;52.662;5.196;2023-03-05T03:39:43;1.10;;;1.10;;
24787;SDS011;12883;52.662;5.196;2023-03-05T03:42:08;0.90;;;0.90;;
24787;SDS011;12883;52.662;5.196;2023-03-05T03:44:33;0.90;;;0.90;;
24787;SDS011;12883;52.662;5.196;2023-03-05T03:46:59;1.57;;;1.57;;
24787;SDS011;12883;52.662;5.196;2023-03-05T03:49:25;2.13;;;2.13;;
24787;SDS011;12883;52.662;5.196;2023-03-05T03:51:51;0.97;;;0.97;;
24787;SDS011;12883;52.662;5.196;2023-03-05T03:54:22;1.53;;;1.53;;
24787;SDS011;12883;52.662;5.196;2023-03-05T03:56:47;1.43;;;1.43;;
24787;SDS011;12883;52.662;5.196;2023-03-05T03:59:13;1.40;;;1.40;;
24787;SDS011;12883;52.662;5.196;2023-03-05T04:01:39;2.23;;;2.23;;
24787;SDS011;12883;52.662;5.196;2023-03-05T04:04:04;1.20;;;1.20;;
24787;SDS011;12883;52.662;5.196;2023-03-05T04:06:30;0.90;;;0.90;;
24787;SDS011;12883;52.662;5.196;2023-03-05T04:08:56;1.63;;;1.63;;
24787;SDS011;12883;52.662;5.196;2023-03-05T04:11:21;1.73;;;1.73;;
24787;SDS011;12883;52.662;5.196;2023-03-05T04:13:47;1.30;;;1.30;;
24787;SDS011;12883;52.662;5.196;2023-03-05T04:16:13;1.37;;;1.37;;
24787;SDS011;12883;52.662;5.196;2023-03-05T04:18:39;1.40;;;1.40;;
24787;SDS011;12883;52.662;5.196;2023-03-05T04:21:05;1.60;;;1.60;;
24787;SDS011;12883;52.662;5.196;2023-03-05T04:23:31;1.40;;;1.40;;
24787;SDS011;12883;52.662;5.196;2023-03-05T04:25:56;1.47;;;1.47;;
24787;SDS011;12883;52.662;5.196;2023-03-05T04:28:22;1.50;;;1.50;;
24787;SDS011;12883;52.662;5.196;2023-03-05T04:30:47;1.87;;;1.87;;
24787;SDS011;12883;52.662;5.196;2023-03-05T04:33:12;1.77;;;1.77;;
24787;SDS011;12883;52.662;5.196;2023-03-05T04:35:38;1.70;;;1.70;;
24787;SDS011;12883;52.662;5.196;2023-03-05T04:38:03;1.63;;;1.63;;
24787;SDS011;12883;52.662;5.196;2023-03-05T04:40:29;1.40;;;1.40;;
24787;SDS011;12883;52.662;5.196;2023-03-05T04:42:54;1.20;;;1.20;;
24787;SDS011;12883;52.662;5.196;2023-03-05T04:45:20;1.33;;;1.33;;
24787;SDS011;12883;52.662;5.196;2023-03-05T04:47:45;1.47;;;1.47;;
24787;SDS011;12883;52.662;5.196;2023-03-05T04:50:11;1.70;;;1.70;;
24787;SDS011;12883;52.662;5.196;2023-03-05T04:52:40;1.30;;;1.30;;
24787;SDS011;12883;52.662;5.196;2023-03-05T04:55:07;1.73;;;1.73;;
24787;SDS011;12883;52.662;5.196;2023-03-05T04:57:34;1.83;;;1.83;;
24787;SDS011;12883;52.662;5.196;2023-03-05T05:00:00;2.03;;;2.03;;
24787;SDS011;12883;52.662;5.196;2023-03-05T05:02:25;1.60;;;1.60;;
24787;SDS011;12883;52.662;5.196;2023-03-05T05:04:51;1.17;;;1.17;;
24787;SDS011;12883;52.662;5.196;2023-03-05T05:07:17;1.70;;;1.70;;
24787;SDS011;12883;52.662;5.196;2023-03-05T05:09:42;1.30;;;1.30;;
24787;SDS011;12883;52.662;5.196;2023-03-05T05:12:08;1.50;;;1.50;;
24787;SDS011;12883;52.662;5.196;2023-03-05T05:14:34;1.70;;;1.70;;
24787;SDS011;12883;52.662;5.196;2023-03-05T05:17:00;1.77;;;1.77;;
24787;SDS011;12883;52.662;5.196;2023-03-05T05:19:29;1.80;;;1.80;;
24787;SDS011;12883;52.662;5.196;2023-03-05T05:21:54;1.30;;;1.30;;
24787;SDS011;12883;52.662;5.196;2023-03-05T05:24:20;1.73;;;1.73;;
24787;SDS011;12883;52.662;5.196;2023-03-05T05:26:45;1.57;;;1.57;;
24787;SDS011;12883;52.662;5.196;2023-03-05T05:29:10;1.87;;;1.87;;
24787;SDS011;12883;52.662;5.196;2023-03-05T05:31:36;1.67;;;1.67;;
24787;SDS011;12883;52.662;5.196;2023-03-05T05:34:01;2.30;;;2.30;;
24787;SDS011;12883;52.662;5.196;2023-03-05T05:36:26;1.43;;;1.43;;
24787;SDS011;12883;52.662;5.196;2023-03-05T05:38:52;1.33;;;1.33;;
24787;SDS011;12883;52.662;5.196;2023-03-05T05:41:18;1.23;;;1.23;;
24787;SDS011;12883;52.662;5.196;2023-03-05T05:43:44;1.07;;;1.07;;
24787;SDS011;12883;52.662;5.196;2023-03-05T05:46:11;1.23;;;1.23;;
24787;SDS011;12883;52.662;5.196;2023-03-05T05:48:38;1.30;;;1.30;;
24787;SDS011;12883;52.662;5.196;2023-03-05T05:51:04;0.97;;;0.97;;
24787;SDS011;12883;52.662;5.196;2023-03-05T05:53:36;0.83;;;0.83;;
24787;SDS011;12883;52.662;5.196;2023-03-05T05:56:06;1.00;;;1.00;;
24787;SDS011;12883;52.662;5.196;2023-03-05T05:58:33;1.37;;;1.37;;
24787;SDS011;12883;52.662;5.196;2023-03-05T06:01:00;1.13;;;1.13;;
24787;SDS011;12883;52.662;5.196;2023-03-05T06:03:25;1.17;;;1.17;;
24787;SDS011;12883;52.662;5.196;2023-03-05T06:05:51;0.87;;;0.87;;
24787;SDS011;12883;52.662;5.196;2023-03-05T06:08:17;1.00;;;1.00;;
24787;SDS011;12883;52.662;5.196;2023-03-05T06:10:42;0.97;;;0.97;;
24787;SDS011;12883;52.662;5.196;2023-03-05T06:13:08;0.97;;;0.97;;
24787;SDS011;12883;52.662;5.196;2023-03-05T06:15:33;0.53;;;0.53;;
24787;SDS011;12883;52.662;5.196;2023-03-05T06:17:59;0.97;;;0.97;;
24787;SDS011;12883;52.662;5.196;2023-03-05T06:20:24;0.90;;;0.90;;
24787;SDS011;12883;52.662;5.196;2023-03-05T06:22:50;0.87;;;0.87;;
24787;SDS011;12883;52.662;5.196;2023-03-05T06:25:15;1.17;;;1.17;;
24787;SDS011;12883;52.662;5.196;2023-03-05T06:27:41;1.30;;;1.30;;
24787;SDS011;12883;52.662;5.196;2023-03-05T06:30:06;0.90;;;0.90;;
24787;SDS011;12883;52.662;5.196;2023-03-05T06:32:34;1.53;;;1.53;;
24787;SDS011;12883;52.662;5.196;2023-03-05T06:34:59;1.17;;;1.17;;
24787;SDS011;12883;52.662;5.196;2023-03-05T06:37:24;0.77;;;0.77;;
24787;SDS011;12883;52.662;5.196;2023-03-05T06:39:50;0.80;;;0.80;;
24787;SDS011;12883;52.662;5.196;2023-03-05T06:42:15;1.10;;;1.10;;
24787;SDS011;12883;52.662;5.196;2023-03-05T06:44:42;0.83;;;0.83;;
24787;SDS011;12883;52.662;5.196;2023-03-05T06:47:07;1.30;;;1.30;;
24787;SDS011;12883;52.662;5.196;2023-03-05T06:49:34;1.50;;;1.50;;
24787;SDS011;12883;52.662;5.196;2023-03-05T06:52:01;1.00;;;1.00;;
24787;SDS011;12883;52.662;5.196;2023-03-05T06:54:26;0.93;;;0.93;;
24787;SDS011;12883;52.662;5.196;2023-03-05T06:56:52;0.93;;;0.93;;
24787;SDS011;12883;52.662;5.196;2023-03-05T06:59:17;1.10;;;1.10;;
24787;SDS011;12883;52.662;5.196;2023-03-05T07:01:43;1.00;;;1.00;;
24787;SDS011;12883;52.662;5.196;2023-03-05T07:04:09;0.73;;;0.73;;
24787;SDS011;12883;52.662;5.196;2023-03-05T07:06:36;1.33;;;1.33;;
24787;SDS011;12883;52.662;5.196;2023-03-05T07:09:06;1.00;;;1.00;;
24787;SDS011;12883;52.662;5.196;2023-03-05T07:11:32;1.23;;;1.23;;
24787;SDS011;12883;52.662;5.196;2023-03-05T07:13:58;0.90;;;0.90;;
24787;SDS011;12883;52.662;5.196;2023-03-05T07:16:25;1.23;;;1.23;;
24787;SDS011;12883;52.662;5.196;2023-03-05T07:18:52;1.23;;;1.23;;
24787;SDS011;12883;52.662;5.196;2023-03-05T07:21:22;1.43;;;1.43;;
24787;SDS011;12883;52.662;5.196;2023-03-05T07:23:49;0.97;;;0.97;;
24787;SDS011;12883;52.662;5.196;2023-03-05T07:26:16;1.03;;;1.03;;
24787;SDS011;12883;52.662;5.196;2023-03-05T07:28:42;1.30;;;1.30;;
24787;SDS011;12883;52.662;5.196;2023-03-05T07:31:11;1.10;;;1.10;;
24787;SDS011;12883;52.662;5.196;2023-03-05T07:33:41;0.73;;;0.73;;
24787;SDS011;12883;52.662;5.196;2023-03-05T07:36:07;1.17;;;1.17;;
24787;SDS011;12883;52.662;5.196;2023-03-05T07:38:34;0.70;;;0.70;;
24787;SDS011;12883;52.662;5.196;2023-03-05T07:41:03;1.27;;;1.27;;
24787;SDS011;12883;52.662;5.196;2023-03-05T07:43:30;0.90;;;0.90;;
24787;SDS011;12883;52.662;5.196;2023-03-05T07:45:55;1.27;;;1.27;;
24787;SDS011;12883;52.662;5.196;2023-03-05T07:48:20;1.40;;;1.40;;
24787;SDS011;12883;52.662;5.196;2023-03-05T07:50:46;1.40;;;1.40;;
24787;SDS011;12883;52.662;5.196;2023-03-05T07:53:12;1.40;;;1.40;;
24787;SDS011;12883;52.662;5.196;2023-03-05T07:55:45;1.23;;;1.23;;
24787;SDS011;12883;52.662;5.196;2023-03-05T07:58:11;1.07;;;1.07;;
24787;SDS011;12883;52.662;5.196;2023-03-05T08:00:38;1.00;;;1.00;;
24787;SDS011;12883;52.662;5.196;2023-03-05T08:03:04;1.47;;;1.47;;
24787;SDS011;12883;52.662;5.196;2023-03-05T08:05:29;1.30;;;1.30;;
24787;SDS011;12883;52.662;5.196;2023-03-05T08:07:55;1.00;;;1.00;;
24787;SDS011;12883;52.662;5.196;2023-03-05T08:10:20;1.20;;;1.20;;
24787;SDS011;12883;52.662;5.196;2023-03-05T08:12:45;1.00;;;1.00;;
24787;SDS011;12883;52.662;5.196;2023-03-05T08:15:11;1.00;;;1.00;;
24787;SDS011;12883;52.662;5.196;2023-03-05T08:17:36;1.73;;;1.73;;
24787;SDS011;12883;52.662;5.196;2023-03-05T08:20:02;0.90;;;0.90;;
24787;SDS011;12883;52.662;5.196;2023-03-05T08:22:31;1.77;;;1.77;;
24787;SDS011;12883;52.662;5.196;2023-03-05T08:24:58;1.03;;;1.03;;
24787;SDS011;12883;52.662;5.196;2023-03-05T08:27:23;1.30;;;1.30;;
24787;SDS011;12883;52.662;5.196;2023-03-05T08:29:49;1.53;;;1.53;;
24787;SDS011;12883;52.662;5.196;2023-03-05T08:32:14;1.07;;;1.07;;
24787;SDS011;12883;52.662;5.196;2023-03-05T08:34:39;1.40;;;1.40;;
24787;SDS011;12883;52.662;5.196;2023-03-05T08:37:05;1.10;;;1.10;;
24787;SDS011;12883;52.662;5.196;2023-03-05T08:39:33;1.00;;;1.00;;
24787;SDS011;12883;52.662;5.196;2023-03-05T08:41:58;1.17;;;1.17;;
24787;SDS011;12883;52.662;5.196;2023-03-05T08:44:23;1.23;;;1.23;;
24787;SDS011;12883;52.662;5.196;2023-03-05T08:46:49;0.90;;;0.90;;
24787;SDS011;12883;52.662;5.196;2023-03-05T08:49:14;1.17;;;1.17;;
24787;SDS011;12883;52.662;5.196;2023-03-05T08:51:39;1.20;;;1.20;;
24787;SDS011;12883;52.662;5.196;2023-03-05T08:54:05;1.00;;;1.00;;
24787;SDS011;12883;52.662;5.196;2023-03-05T08:56:32;0.87;;;0.87;;
24787;SDS011;12883;52.662;5.196;2023-03-05T08:59:00;1.40;;;1.40;;
24787;SDS011;12883;52.662;5.196;2023-03-05T09:01:27;1.00;;;1.00;;
24787;SDS011;12883;52.662;5.196;2023-03-05T09:03:54;1.00;;;1.00;;
24787;SDS011;12883;52.662;5.196;2023-03-05T09:06:19;1.10;;;1.10;;
24787;SDS011;12883;52.662;5.196;2023-03-05T09:08:45;1.13;;;1.13;;
24787;SDS011;12883;52.662;5.196;2023-03-05T09:11:10;1.30;;;1.30;;
24787;SDS011;12883;52.662;5.196;2023-03-05T09:13:37;0.80;;;0.80;;
24787;SDS011;12883;52.662;5.196;2023-03-05T09:16:04;0.80;;;0.80;;
24787;SDS011;12883;52.662;5.196;2023-03-05T09:18:31;1.30;;;1.30;;
24787;SDS011;12883;52.662;5.196;2023-03-05T09:20:57;1.23;;;1.23;;
24787;SDS011;12883;52.662;5.196;2023-03-05T09:23:23;0.97;;;0.97;;
24787;SDS011;12883;52.662;5.196;2023-03-05T09:25:49;0.73;;;0.73;;
24787;SDS011;12883;52.662;5.196;2023-03-05T09:28:14;0.90;;;0.90;;
24787;SDS011;12883;52.662;5.196;2023-03-05T09:30:40;1.23;;;1.23;;
24787;SDS011;12883;52.662;5.196;2023-03-05T09:33:06;1.10;;;1.10;;
24787;SDS011;12883;52.662;5.196;2023-03-05T09:35:35;1.30;;;1.30;;
24787;SDS011;12883;52.662;5.196;2023-03-05T09:38:01;0.90;;;0.90;;
24787;SDS011;12883;52.662;5.196;2023-03-05T09:40:29;1.27;;;1.27;;
24787;SDS011;12883;52.662;5.196;2023-03-05T09:43:18;1.30;;;1.30;;
24787;SDS011;12883;52.662;5.196;2023-03-05T09:46:36;1.07;;;1.07;;
24787;SDS011;12883;52.662;5.196;2023-03-05T09:48:52;0.97;;;0.97;;
24787;SDS011;12883;52.662;5.196;2023-03-05T09:51:27;1.07;;;1.07;;
24787;SDS011;12883;52.662;5.196;2023-03-05T09:54:05;1.10;;;1.10;;
24787;SDS011;12883;52.662;5.196;2023-03-05T09:56:38;0.80;;;0.80;;
24787;SDS011;12883;52.662;5.196;2023-03-05T09:59:16;0.93;;;0.93;;
24787;SDS011;12883;52.662;5.196;2023-03-05T10:01:52;1.00;;;1.00;;
24787;SDS011;12883;52.662;5.196;2023-03-05T10:04:24;0.70;;;0.70;;
24787;SDS011;12883;52.662;5.196;2023-03-05T10:07:21;1.20;;;1.20;;
24787;SDS011;12883;52.662;5.196;2023-03-05T10:12:41;1.00;;;1.00;;
24787;SDS011;12883;52.662;5.196;2023-03-05T10:15:11;0.90;;;0.90;;
24787;SDS011;12883;52.662;5.196;2023-03-05T10:20:48;1.20;;;1.20;;
24787;SDS011;12883;52.662;5.196;2023-03-05T10:23:24;0.83;;;0.83;;
24787;SDS011;12883;52.662;5.196;2023-03-05T10:26:37;0.73;;;0.73;;
24787;SDS011;12883;52.662;5.196;2023-03-05T10:39:59;1.20;;;1.20;;
24787;SDS011;12883;52.662;5.196;2023-03-05T10:43:04;0.70;;;0.70;;
24787;SDS011;12883;52.662;5.196;2023-03-05T10:46:14;1.30;;;1.30;;
24787;SDS011;12883;52.662;5.196;2023-03-05T10:51:33;1.10;;;1.10;;
24787;SDS011;12883;52.662;5.196;2023-03-05T10:54:06;1.00;;;1.00;;
24787;SDS011;12883;52.662;5.196;2023-03-05T10:56:40;1.23;;;1.23;;
24787;SDS011;12883;52.662;5.196;2023-03-05T10:59:05;0.70;;;0.70;;
24787;SDS011;12883;52.662;5.196;2023-03-05T11:01:31;1.20;;;1.20;;
24787;SDS011;12883;52.662;5.196;2023-03-05T11:04:07;1.00;;;1.00;;
24787;SDS011;12883;52.662;5.196;2023-03-05T11:06:50;1.20;;;1.20;;
24787;SDS011;12883;52.662;5.196;2023-03-05T11:09:16;1.17;;;1.17;;
24787;SDS011;12883;52.662;5.196;2023-03-05T11:14:30;1.37;;;1.37;;
24787;SDS011;12883;52.662;5.196;2023-03-05T11:16:58;1.20;;;1.20;;
24787;SDS011;12883;52.662;5.196;2023-03-05T11:24:43;1.17;;;1.17;;
24787;SDS011;12883;52.662;5.196;2023-03-05T11:27:22;1.00;;;1.00;;
24787;SDS011;12883;52.662;5.196;2023-03-05T11:30:25;0.90;;;0.90;;
24787;SDS011;12883;52.662;5.196;2023-03-05T11:33:05;1.23;;;1.23;;
24787;SDS011;12883;52.662;5.196;2023-03-05T11:35:45;1.00;;;1.00;;
24787;SDS011;12883;52.662;5.196;2023-03-05T11:38:19;1.00;;;1.00;;
24787;SDS011;12883;52.662;5.196;2023-03-05T11:40:48;0.97;;;0.97;;
24787;SDS011;12883;52.662;5.196;2023-03-05T11:43:16;1.43;;;1.43;;
24787;SDS011;12883;52.662;5.196;2023-03-05T11:45:43;1.03;;;1.03;;
24787;SDS011;12883;52.662;5.196;2023-03-05T11:48:20;1.33;;;1.33;;
24787;SDS011;12883;52.662;5.196;2023-03-05T11:50:56;1.10;;;1.10;;
24787;SDS011;12883;52.662;5.196;2023-03-05T11:53:34;1.07;;;1.07;;
24787;SDS011;12883;52.662;5.196;2023-03-05T11:56:04;0.97;;;0.97;;
24787;SDS011;12883;52.662;5.196;2023-03-05T12:01:22;1.23;;;1.23;;
24787;SDS011;12883;52.662;5.196;2023-03-05T12:03:50;1.13;;;1.13;;
24787;SDS011;12883;52.662;5.196;2023-03-05T12:06:19;1.23;;;1.23;;
24787;SDS011;12883;52.662;5.196;2023-03-05T12:08:54;0.93;;;0.93;;
24787;SDS011;12883;52.662;5.196;2023-03-05T12:13:53;0.80;;;0.80;;
24787;SDS011;12883;52.662;5.196;2023-03-05T12:19:22;0.77;;;0.77;;
24787;SDS011;12883;52.662;5.196;2023-03-05T12:21:58;0.83;;;0.83;;
24787;SDS011;12883;52.662;5.196;2023-03-05T12:32:02;0.70;;;0.70;;
24787;SDS011;12883;52.662;5.196;2023-03-05T12:34:36;1.00;;;1.00;;
24787;SDS011;12883;52.662;5.196;2023-03-05T12:37:12;1.13;;;1.13;;
24787;SDS011;12883;52.662;5.196;2023-03-05T12:40:11;1.17;;;1.17;;
24787;SDS011;12883;52.662;5.196;2023-03-05T12:52:59;2.13;;;2.13;;
24787;SDS011;12883;52.662;5.196;2023-03-05T12:55:35;0.90;;;0.90;;
24787;SDS011;12883;52.662;5.196;2023-03-05T12:58:15;1.13;;;1.13;;
24787;SDS011;12883;52.662;5.196;2023-03-05T13:00:52;0.90;;;0.90;;
24787;SDS011;12883;52.662;5.196;2023-03-05T13:03:27;1.60;;;1.60;;
24787;SDS011;12883;52.662;5.196;2023-03-05T13:05:56;0.93;;;0.93;;
24787;SDS011;12883;52.662;5.196;2023-03-05T13:08:34;1.10;;;1.10;;
24787;SDS011;12883;52.662;5.196;2023-03-05T13:11:05;1.00;;;1.00;;
24787;SDS011;12883;52.662;5.196;2023-03-05T13:13:37;1.13;;;1.13;;
24787;SDS011;12883;52.662;5.196;2023-03-05T13:16:17;1.13;;;1.13;;
24787;SDS011;12883;52.662;5.196;2023-03-05T13:18:44;1.20;;;1.20;;
24787;SDS011;12883;52.662;5.196;2023-03-05T13:21:13;1.23;;;1.23;;
24787;SDS011;12883;52.662;5.196;2023-03-05T13:23:48;0.93;;;0.93;;
24787;SDS011;12883;52.662;5.196;2023-03-05T13:26:21;0.77;;;0.77;;
24787;SDS011;12883;52.662;5.196;2023-03-05T13:31:56;1.40;;;1.40;;
24787;SDS011;12883;52.662;5.196;2023-03-05T13:39:27;0.80;;;0.80;;
24787;SDS011;12883;52.662;5.196;2023-03-05T13:41:57;0.90;;;0.90;;
24787;SDS011;12883;52.662;5.196;2023-03-05T13:44:25;0.70;;;0.70;;
24787;SDS011;12883;52.662;5.196;2023-03-05T13:46:53;1.00;;;1.00;;
24787;SDS011;12883;52.662;5.196;2023-03-05T13:49:30;1.00;;;1.00;;
24787;SDS011;12883;52.662;5.196;2023-03-05T13:51:57;0.73;;;0.73;;
24787;SDS011;12883;52.662;5.196;2023-03-05T13:54:24;1.03;;;1.03;;
24787;SDS011;12883;52.662;5.196;2023-03-05T13:56:54;1.20;;;1.20;;
24787;SDS011;12883;52.662;5.196;2023-03-05T13:59:23;1.00;;;1.00;;
24787;SDS011;12883;52.662;5.196;2023-03-05T14:01:52;0.97;;;0.97;;
24787;SDS011;12883;52.662;5.196;2023-03-05T14:04:23;1.40;;;1.40;;
24787;SDS011;12883;52.662;5.196;2023-03-05T14:06:53;0.70;;;0.70;;
24787;SDS011;12883;52.662;5.196;2023-03-05T14:12:06;1.10;;;1.10;;
24787;SDS011;12883;52.662;5.196;2023-03-05T14:14:48;0.90;;;0.90;;
24787;SDS011;12883;52.662;5.196;2023-03-05T14:19:46;0.97;;;0.97;;
24787;SDS011;12883;52.662;5.196;2023-03-05T14:22:26;1.10;;;1.10;;
24787;SDS011;12883;52.662;5.196;2023-03-05T14:24:54;0.90;;;0.90;;
24787;SDS011;12883;52.662;5.196;2023-03-05T14:27:19;0.90;;;0.90;;
24787;SDS011;12883;52.662;5.196;2023-03-05T14:29:45;0.70;;;0.70;;
24787;SDS011;12883;52.662;5.196;2023-03-05T14:32:26;0.83;;;0.83;;
24787;SDS011;12883;52.662;5.196;2023-03-05T14:34:56;0.60;;;0.60;;
24787;SDS011;12883;52.662;5.196;2023-03-05T14:40:02;0.70;;;0.70;;
24787;SDS011;12883;52.662;5.196;2023-03-05T14:45:12;1.10;;;1.10;;
24787;SDS011;12883;52.662;5.196;2023-03-05T14:47:40;1.00;;;1.00;;
24787;SDS011;12883;52.662;5.196;2023-03-05T14:50:06;0.70;;;0.70;;
24787;SDS011;12883;52.662;5.196;2023-03-05T14:52:32;1.20;;;1.20;;
24787;SDS011;12883;52.662;5.196;2023-03-05T14:54:59;0.73;;;0.73;;
24787;SDS011;12883;52.662;5.196;2023-03-05T14:57:25;0.73;;;0.73;;
24787;SDS011;12883;52.662;5.196;2023-03-05T14:59:52;0.90;;;0.90;;
24787;SDS011;12883;52.662;5.196;2023-03-05T15:02:23;1.30;;;1.30;;
24787;SDS011;12883;52.662;5.196;2023-03-05T15:04:50;1.10;;;1.10;;
24787;SDS011;12883;52.662;5.196;2023-03-05T15:07:17;0.87;;;0.87;;
24787;SDS011;12883;52.662;5.196;2023-03-05T15:09:44;1.00;;;1.00;;
24787;SDS011;12883;52.662;5.196;2023-03-05T15:12:13;0.60;;;0.60;;
24787;SDS011;12883;52.662;5.196;2023-03-05T15:14:40;0.60;;;0.60;;
24787;SDS011;12883;52.662;5.196;2023-03-05T15:17:15;0.60;;;0.60;;
24787;SDS011;12883;52.662;5.196;2023-03-05T15:19:44;0.80;;;0.80;;
24787;SDS011;12883;52.662;5.196;2023-03-05T15:22:11;0.90;;;0.90;;
24787;SDS011;12883;52.662;5.196;2023-03-05T15:24:36;0.63;;;0.63;;
24787;SDS011;12883;52.662;5.196;2023-03-05T15:27:02;1.57;;;1.57;;
24787;SDS011;12883;52.662;5.196;2023-03-05T15:29:28;0.90;;;0.90;;
24787;SDS011;12883;52.662;5.196;2023-03-05T15:31:53;0.87;;;0.87;;
24787;SDS011;12883;52.662;5.196;2023-03-05T15:34:19;1.20;;;1.20;;
24787;SDS011;12883;52.662;5.196;2023-03-05T15:36:44;0.90;;;0.90;;
24787;SDS011;12883;52.662;5.196;2023-03-05T15:39:10;0.97;;;0.97;;
24787;SDS011;12883;52.662;5.196;2023-03-05T15:41:35;1.07;;;1.07;;
24787;SDS011;12883;52.662;5.196;2023-03-05T15:44:00;1.20;;;1.20;;
24787;SDS011;12883;52.662;5.196;2023-03-05T15:46:26;1.37;;;1.37;;
24787;SDS011;12883;52.662;5.196;2023-03-05T15:48:51;1.27;;;1.27;;
24787;SDS011;12883;52.662;5.196;2023-03-05T15:51:16;1.43;;;1.43;;
24787;SDS011;12883;52.662;5.196;2023-03-05T15:53:44;1.07;;;1.07;;
24787;SDS011;12883;52.662;5.196;2023-03-05T15:56:16;0.80;;;0.80;;
24787;SDS011;12883;52.662;5.196;2023-03-05T15:58:42;1.10;;;1.10;;
24787;SDS011;12883;52.662;5.196;2023-03-05T16:01:09;1.00;;;1.00;;
24787;SDS011;12883;52.662;5.196;2023-03-05T16:03:35;0.97;;;0.97;;
24787;SDS011;12883;52.662;5.196;2023-03-05T16:06:01;1.40;;;1.40;;
24787;SDS011;12883;52.662;5.196;2023-03-05T16:08:29;1.00;;;1.00;;
24787;SDS011;12883;52.662;5.196;2023-03-05T16:10:56;1.03;;;1.03;;
24787;SDS011;12883;52.662;5.196;2023-03-05T16:13:21;1.07;;;1.07;;